Terminal Aerodrome Forecast
Issued by NWS Duluth, MN

Home | Current Version | Previous Version | Text Only | Print | Product List | Glossary On
Versions: 1 2 3 4 5 6 7 8 9 10 11 12 13 14 15 16 17 18 19 20 21 22 23 24 25 26 27 28 29 30 31 32 33 34 35 36 37 38
000
FTUS43 KDLH 141200 AAA
TAFINL
TAF AMD
KINL 141205Z 1412/1512 34012KT P6SM VCSH SCT020 OVC045
      TEMPO 1412/1415 BKN020
     FM141500 34014G21KT P6SM VCSH OVC015
     FM150200 35007KT P6SM BKN025
     FM150400 35003KT P6SM SKC=

USA.gov is the U.S. government's official web portal to all federal, state and local government web resources and services.